sensor_id;sensor_type;location;lat;lon;timestamp;temperature;humidity
71754;DHT22;59593;51.716;7.016;2023-04-25T00:02:25;7.10;99.90
71754;DHT22;59593;51.716;7.016;2023-04-25T00:04:50;7.10;99.90
71754;DHT22;59593;51.716;7.016;2023-04-25T00:07:17;7.00;99.90
71754;DHT22;59593;51.716;7.016;2023-04-25T00:09:43;7.10;99.90
71754;DHT22;59593;51.716;7.016;2023-04-25T00:12:08;7.10;99.90
71754;DHT22;59593;51.716;7.016;2023-04-25T00:14:34;7.10;99.90
71754;DHT22;59593;51.716;7.016;2023-04-25T00:17:00;7.10;99.90
71754;DHT22;59593;51.716;7.016;2023-04-25T00:19:26;7.00;99.90
71754;DHT22;59593;51.716;7.016;2023-04-25T00:21:54;6.90;99.90
71754;DHT22;59593;51.716;7.016;2023-04-25T00:24:20;7.00;99.90
71754;DHT22;59593;51.716;7.016;2023-04-25T00:26:45;7.00;99.90
71754;DHT22;59593;51.716;7.016;2023-04-25T00:29:11;7.00;99.90
71754;DHT22;59593;51.716;7.016;2023-04-25T00:31:37;7.00;99.90
71754;DHT22;59593;51.716;7.016;2023-04-25T00:34:02;6.90;99.90
71754;DHT22;59593;51.716;7.016;2023-04-25T00:36:28;7.10;99.90
71754;DHT22;59593;51.716;7.016;2023-04-25T00:38:53;7.00;99.90
71754;DHT22;59593;51.716;7.016;2023-04-25T00:41:20;7.00;99.90
71754;DHT22;59593;51.716;7.016;2023-04-25T00:43:48;7.00;99.90
71754;DHT22;59593;51.716;7.016;2023-04-25T00:46:13;7.00;99.90
71754;DHT22;59593;51.716;7.016;2023-04-25T00:48:39;7.00;99.90
71754;DHT22;59593;51.716;7.016;2023-04-25T00:51:04;7.00;99.90
71754;DHT22;59593;51.716;7.016;2023-04-25T00:53:33;7.00;99.90
71754;DHT22;59593;51.716;7.016;2023-04-25T00:55:59;7.00;99.90
71754;DHT22;59593;51.716;7.016;2023-04-25T00:58:25;7.10;99.90
71754;DHT22;59593;51.716;7.016;2023-04-25T01:00:51;7.10;99.90
71754;DHT22;59593;51.716;7.016;2023-04-25T01:03:17;7.10;99.90
71754;DHT22;59593;51.716;7.016;2023-04-25T01:05:45;7.10;99.90
71754;DHT22;59593;51.716;7.016;2023-04-25T01:08:12;7.10;99.90
71754;DHT22;59593;51.716;7.016;2023-04-25T01:10:38;7.00;99.90
71754;DHT22;59593;51.716;7.016;2023-04-25T01:13:04;7.10;99.90
71754;DHT22;59593;51.716;7.016;2023-04-25T01:15:30;7.10;99.90
71754;DHT22;59593;51.716;7.016;2023-04-25T01:17:57;7.00;99.90
71754;DHT22;59593;51.716;7.016;2023-04-25T01:20:24;7.20;99.90
71754;DHT22;59593;51.716;7.016;2023-04-25T01:22:51;7.20;99.90
71754;DHT22;59593;51.716;7.016;2023-04-25T01:25:17;7.20;99.90
71754;DHT22;59593;51.716;7.016;2023-04-25T01:27:43;7.20;99.90
71754;DHT22;59593;51.716;7.016;2023-04-25T01:30:09;7.20;99.90
71754;DHT22;59593;51.716;7.016;2023-04-25T01:32:36;7.10;99.90
71754;DHT22;59593;51.716;7.016;2023-04-25T01:35:05;7.00;99.90
71754;DHT22;59593;51.716;7.016;2023-04-25T01:37:39;7.00;99.90
71754;DHT22;59593;51.716;7.016;2023-04-25T01:40:06;7.30;99.90
71754;DHT22;59593;51.716;7.016;2023-04-25T01:42:33;7.30;99.90
71754;DHT22;59593;51.716;7.016;2023-04-25T01:44:59;7.40;99.90
71754;DHT22;59593;51.716;7.016;2023-04-25T01:47:25;7.30;99.90
71754;DHT22;59593;51.716;7.016;2023-04-25T01:49:50;7.40;99.90
71754;DHT22;59593;51.716;7.016;2023-04-25T01:52:16;7.40;99.90
71754;DHT22;59593;51.716;7.016;2023-04-25T01:54:42;7.30;99.90
71754;DHT22;59593;51.716;7.016;2023-04-25T01:57:10;7.30;99.90
71754;DHT22;59593;51.716;7.016;2023-04-25T01:59:37;7.30;99.90
71754;DHT22;59593;51.716;7.016;2023-04-25T02:02:02;7.20;99.90
71754;DHT22;59593;51.716;7.016;2023-04-25T02:04:30;7.20;99.90
71754;DHT22;59593;51.716;7.016;2023-04-25T02:06:55;7.20;99.90
71754;DHT22;59593;51.716;7.016;2023-04-25T02:09:21;7.20;99.90
71754;DHT22;59593;51.716;7.016;2023-04-25T02:11:47;7.20;99.90
71754;DHT22;59593;51.716;7.016;2023-04-25T02:14:13;7.20;99.90
71754;DHT22;59593;51.716;7.016;2023-04-25T02:16:38;7.20;99.90
71754;DHT22;59593;51.716;7.016;2023-04-25T02:19:05;7.30;99.90
71754;DHT22;59593;51.716;7.016;2023-04-25T02:21:30;7.20;99.90
71754;DHT22;59593;51.716;7.016;2023-04-25T02:23:57;7.20;99.90
71754;DHT22;59593;51.716;7.016;2023-04-25T02:26:22;7.30;99.90
71754;DHT22;59593;51.716;7.016;2023-04-25T02:28:49;7.30;99.90
71754;DHT22;59593;51.716;7.016;2023-04-25T02:31:15;7.30;99.90
71754;DHT22;59593;51.716;7.016;2023-04-25T02:33:41;7.30;99.90
71754;DHT22;59593;51.716;7.016;2023-04-25T02:36:07;7.30;99.90
71754;DHT22;59593;51.716;7.016;2023-04-25T02:38:33;7.20;99.90
71754;DHT22;59593;51.716;7.016;2023-04-25T02:40:59;7.20;99.90
71754;DHT22;59593;51.716;7.016;2023-04-25T02:43:25;7.20;99.90
71754;DHT22;59593;51.716;7.016;2023-04-25T02:45:51;7.10;99.90
71754;DHT22;59593;51.716;7.016;2023-04-25T02:48:16;7.20;99.90
71754;DHT22;59593;51.716;7.016;2023-04-25T02:50:42;7.20;99.90
71754;DHT22;59593;51.716;7.016;2023-04-25T02:53:08;7.10;99.90
71754;DHT22;59593;51.716;7.016;2023-04-25T02:55:33;7.10;99.90
71754;DHT22;59593;51.716;7.016;2023-04-25T02:57:59;7.00;99.90
71754;DHT22;59593;51.716;7.016;2023-04-25T03:00:24;7.10;99.90
71754;DHT22;59593;51.716;7.016;2023-04-25T03:02:50;7.30;99.90
71754;DHT22;59593;51.716;7.016;2023-04-25T03:05:16;7.20;99.90
71754;DHT22;59593;51.716;7.016;2023-04-25T03:07:42;7.10;99.90
71754;DHT22;59593;51.716;7.016;2023-04-25T03:10:09;6.90;99.90
71754;DHT22;59593;51.716;7.016;2023-04-25T03:12:35;6.80;99.90
71754;DHT22;59593;51.716;7.016;2023-04-25T03:15:00;6.60;99.90
71754;DHT22;59593;51.716;7.016;2023-04-25T03:17:26;6.20;99.90
71754;DHT22;59593;51.716;7.016;2023-04-25T03:19:55;6.00;99.90
71754;DHT22;59593;51.716;7.016;2023-04-25T03:22:21;6.00;99.90
71754;DHT22;59593;51.716;7.016;2023-04-25T03:24:47;6.10;99.90
71754;DHT22;59593;51.716;7.016;2023-04-25T03:27:13;6.20;99.90
71754;DHT22;59593;51.716;7.016;2023-04-25T03:29:38;6.30;99.90
71754;DHT22;59593;51.716;7.016;2023-04-25T03:32:05;6.20;99.90
71754;DHT22;59593;51.716;7.016;2023-04-25T03:34:31;6.10;99.90
71754;DHT22;59593;51.716;7.016;2023-04-25T03:36:57;6.10;99.90
71754;DHT22;59593;51.716;7.016;2023-04-25T03:39:22;6.20;99.90
71754;DHT22;59593;51.716;7.016;2023-04-25T03:41:48;6.00;99.90
71754;DHT22;59593;51.716;7.016;2023-04-25T03:44:14;6.10;99.90
71754;DHT22;59593;51.716;7.016;2023-04-25T03:46:39;5.90;99.90
71754;DHT22;59593;51.716;7.016;2023-04-25T03:49:05;5.90;99.90
71754;DHT22;59593;51.716;7.016;2023-04-25T03:51:31;5.90;99.90
71754;DHT22;59593;51.716;7.016;2023-04-25T03:53:56;5.90;99.90
71754;DHT22;59593;51.716;7.016;2023-04-25T03:56:22;6.00;99.90
71754;DHT22;59593;51.716;7.016;2023-04-25T03:58:48;6.00;99.90
71754;DHT22;59593;51.716;7.016;2023-04-25T04:01:13;6.10;99.90
71754;DHT22;59593;51.716;7.016;2023-04-25T04:03:39;6.20;99.90
71754;DHT22;59593;51.716;7.016;2023-04-25T04:06:05;6.20;99.90
71754;DHT22;59593;51.716;7.016;2023-04-25T04:08:32;6.20;99.90
71754;DHT22;59593;51.716;7.016;2023-04-25T04:10:58;6.10;99.90
71754;DHT22;59593;51.716;7.016;2023-04-25T04:13:26;5.90;99.90
71754;DHT22;59593;51.716;7.016;2023-04-25T04:15:52;5.80;99.90
71754;DHT22;59593;51.716;7.016;2023-04-25T04:18:18;5.70;99.90
71754;DHT22;59593;51.716;7.016;2023-04-25T04:20:43;5.70;99.90
71754;DHT22;59593;51.716;7.016;2023-04-25T04:23:09;5.70;99.90
71754;DHT22;59593;51.716;7.016;2023-04-25T04:25:34;5.70;99.90
71754;DHT22;59593;51.716;7.016;2023-04-25T04:28:00;5.70;99.90
71754;DHT22;59593;51.716;7.016;2023-04-25T04:30:26;5.80;99.90
71754;DHT22;59593;51.716;7.016;2023-04-25T04:32:55;6.00;99.90
71754;DHT22;59593;51.716;7.016;2023-04-25T04:35:21;5.80;99.90
71754;DHT22;59593;51.716;7.016;2023-04-25T04:37:47;6.10;99.90
71754;DHT22;59593;51.716;7.016;2023-04-25T04:40:14;6.20;99.90
71754;DHT22;59593;51.716;7.016;2023-04-25T04:42:44;6.10;99.90
71754;DHT22;59593;51.716;7.016;2023-04-25T04:45:12;6.10;99.90
71754;DHT22;59593;51.716;7.016;2023-04-25T04:47:38;6.10;99.90
71754;DHT22;59593;51.716;7.016;2023-04-25T04:50:06;6.10;99.90
71754;DHT22;59593;51.716;7.016;2023-04-25T04:52:34;6.20;99.90
71754;DHT22;59593;51.716;7.016;2023-04-25T04:55:00;6.10;99.90
71754;DHT22;59593;51.716;7.016;2023-04-25T04:57:25;6.10;99.90
71754;DHT22;59593;51.716;7.016;2023-04-25T04:59:52;6.10;99.90
71754;DHT22;59593;51.716;7.016;2023-04-25T05:02:17;6.10;99.90
71754;DHT22;59593;51.716;7.016;2023-04-25T05:04:43;5.90;99.90
71754;DHT22;59593;51.716;7.016;2023-04-25T05:07:08;6.00;99.90
71754;DHT22;59593;51.716;7.016;2023-04-25T05:09:34;6.10;99.90
71754;DHT22;59593;51.716;7.016;2023-04-25T05:12:00;6.10;99.90
71754;DHT22;59593;51.716;7.016;2023-04-25T05:14:26;6.20;99.90
71754;DHT22;59593;51.716;7.016;2023-04-25T05:16:52;6.20;99.90
71754;DHT22;59593;51.716;7.016;2023-04-25T05:19:17;6.20;99.90
71754;DHT22;59593;51.716;7.016;2023-04-25T05:21:43;6.10;99.90
71754;DHT22;59593;51.716;7.016;2023-04-25T05:24:09;6.20;99.90
71754;DHT22;59593;51.716;7.016;2023-04-25T05:26:34;6.30;99.90
71754;DHT22;59593;51.716;7.016;2023-04-25T05:29:00;6.50;99.90
71754;DHT22;59593;51.716;7.016;2023-04-25T05:31:26;6.50;99.90
71754;DHT22;59593;51.716;7.016;2023-04-25T05:33:51;6.40;99.90
71754;DHT22;59593;51.716;7.016;2023-04-25T05:36:19;6.40;99.90
71754;DHT22;59593;51.716;7.016;2023-04-25T05:38:45;6.50;99.90
71754;DHT22;59593;51.716;7.016;2023-04-25T05:41:10;6.50;99.90
71754;DHT22;59593;51.716;7.016;2023-04-25T05:43:36;6.50;99.90
71754;DHT22;59593;51.716;7.016;2023-04-25T05:46:02;6.50;99.90
71754;DHT22;59593;51.716;7.016;2023-04-25T05:48:28;6.60;99.90
71754;DHT22;59593;51.716;7.016;2023-04-25T05:50:54;6.60;99.90
71754;DHT22;59593;51.716;7.016;2023-04-25T05:53:20;6.60;99.90
71754;DHT22;59593;51.716;7.016;2023-04-25T05:55:46;6.70;99.90
71754;DHT22;59593;51.716;7.016;2023-04-25T05:58:12;6.70;99.90
71754;DHT22;59593;51.716;7.016;2023-04-25T06:00:37;6.70;99.90
71754;DHT22;59593;51.716;7.016;2023-04-25T06:03:03;6.80;99.90
71754;DHT22;59593;51.716;7.016;2023-04-25T06:05:29;6.80;99.90
71754;DHT22;59593;51.716;7.016;2023-04-25T06:07:55;6.80;99.90
71754;DHT22;59593;51.716;7.016;2023-04-25T06:10:21;6.70;99.90
71754;DHT22;59593;51.716;7.016;2023-04-25T06:12:47;6.80;99.90
71754;DHT22;59593;51.716;7.016;2023-04-25T06:15:18;6.60;99.90
71754;DHT22;59593;51.716;7.016;2023-04-25T06:17:44;6.70;99.90
71754;DHT22;59593;51.716;7.016;2023-04-25T06:20:10;6.80;99.90
71754;DHT22;59593;51.716;7.016;2023-04-25T06:22:36;6.80;99.90
71754;DHT22;59593;51.716;7.016;2023-04-25T06:25:01;6.80;99.90
71754;DHT22;59593;51.716;7.016;2023-04-25T06:27:29;6.80;99.90
71754;DHT22;59593;51.716;7.016;2023-04-25T06:29:55;6.80;99.90
71754;DHT22;59593;51.716;7.016;2023-04-25T06:32:20;6.80;99.90
71754;DHT22;59593;51.716;7.016;2023-04-25T06:34:46;6.80;99.90
71754;DHT22;59593;51.716;7.016;2023-04-25T06:37:11;6.90;99.90
71754;DHT22;59593;51.716;7.016;2023-04-25T06:39:37;6.90;99.90
71754;DHT22;59593;51.716;7.016;2023-04-25T06:42:02;6.90;99.90
71754;DHT22;59593;51.716;7.016;2023-04-25T06:44:28;7.00;99.90
71754;DHT22;59593;51.716;7.016;2023-04-25T06:46:55;7.20;99.90
71754;DHT22;59593;51.716;7.016;2023-04-25T06:49:20;7.20;99.90
71754;DHT22;59593;51.716;7.016;2023-04-25T06:51:46;7.30;99.90
71754;DHT22;59593;51.716;7.016;2023-04-25T06:54:11;7.30;99.90
71754;DHT22;59593;51.716;7.016;2023-04-25T06:56:37;7.40;99.90
71754;DHT22;59593;51.716;7.016;2023-04-25T06:59:02;7.50;99.90
71754;DHT22;59593;51.716;7.016;2023-04-25T07:01:28;7.60;99.90
71754;DHT22;59593;51.716;7.016;2023-04-25T07:03:53;7.70;99.90
71754;DHT22;59593;51.716;7.016;2023-04-25T07:06:19;7.70;99.90
71754;DHT22;59593;51.716;7.016;2023-04-25T07:08:45;7.70;99.90
71754;DHT22;59593;51.716;7.016;2023-04-25T07:11:10;7.70;99.90
71754;DHT22;59593;51.716;7.016;2023-04-25T07:13:36;7.60;99.90
71754;DHT22;59593;51.716;7.016;2023-04-25T13:43:03;12.40;99.90
71754;DHT22;59593;51.716;7.016;2023-04-25T13:45:29;12.30;99.90
71754;DHT22;59593;51.716;7.016;2023-04-25T13:47:55;12.70;99.90
71754;DHT22;59593;51.716;7.016;2023-04-25T13:50:21;12.30;99.90
71754;DHT22;59593;51.716;7.016;2023-04-25T13:52:47;12.40;99.90
71754;DHT22;59593;51.716;7.016;2023-04-25T13:55:12;12.70;99.90
71754;DHT22;59593;51.716;7.016;2023-04-25T13:57:38;12.60;99.90
71754;DHT22;59593;51.716;7.016;2023-04-25T14:00:08;13.00;99.90
71754;DHT22;59593;51.716;7.016;2023-04-25T14:02:36;12.30;99.90
71754;DHT22;59593;51.716;7.016;2023-04-25T14:05:03;12.30;99.90
71754;DHT22;59593;51.716;7.016;2023-04-25T14:07:29;12.80;99.90
71754;DHT22;59593;51.716;7.016;2023-04-25T14:09:55;12.90;99.90
71754;DHT22;59593;51.716;7.016;2023-04-25T14:12:22;12.70;99.90
71754;DHT22;59593;51.716;7.016;2023-04-25T14:14:51;11.80;99.90
71754;DHT22;59593;51.716;7.016;2023-04-25T14:17:18;11.20;99.90
71754;DHT22;59593;51.716;7.016;2023-04-25T14:19:44;11.00;99.90
71754;DHT22;59593;51.716;7.016;2023-04-25T14:22:13;10.60;99.90
71754;DHT22;59593;51.716;7.016;2023-04-25T14:24:39;10.70;99.90
71754;DHT22;59593;51.716;7.016;2023-04-25T14:27:05;10.50;99.90
71754;DHT22;59593;51.716;7.016;2023-04-25T14:29:31;10.50;99.90
71754;DHT22;59593;51.716;7.016;2023-04-25T14:31:56;10.50;99.90
71754;DHT22;59593;51.716;7.016;2023-04-25T14:34:24;10.70;99.90
71754;DHT22;59593;51.716;7.016;2023-04-25T14:36:50;10.90;99.90
71754;DHT22;59593;51.716;7.016;2023-04-25T14:39:16;10.80;99.90
71754;DHT22;59593;51.716;7.016;2023-04-25T14:41:42;10.90;99.90
71754;DHT22;59593;51.716;7.016;2023-04-25T14:44:08;10.60;99.90
71754;DHT22;59593;51.716;7.016;2023-04-25T14:46:33;10.90;99.90
71754;DHT22;59593;51.716;7.016;2023-04-25T14:48:59;11.40;99.90
71754;DHT22;59593;51.716;7.016;2023-04-25T14:51:25;11.50;99.90
71754;DHT22;59593;51.716;7.016;2023-04-25T14:53:51;11.80;99.90
71754;DHT22;59593;51.716;7.016;2023-04-25T14:56:18;12.40;99.90
71754;DHT22;59593;51.716;7.016;2023-04-25T14:58:44;12.60;99.90
71754;DHT22;59593;51.716;7.016;2023-04-25T15:01:11;12.90;99.90
71754;DHT22;59593;51.716;7.016;2023-04-25T15:03:36;12.30;99.90
71754;DHT22;59593;51.716;7.016;2023-04-25T15:06:02;12.60;99.90
71754;DHT22;59593;51.716;7.016;2023-04-25T15:08:27;11.20;99.90
71754;DHT22;59593;51.716;7.016;2023-04-25T15:10:53;10.40;99.90
71754;DHT22;59593;51.716;7.016;2023-04-25T15:13:19;9.80;99.90
71754;DHT22;59593;51.716;7.016;2023-04-25T15:15:44;9.40;99.90
71754;DHT22;59593;51.716;7.016;2023-04-25T15:18:25;9.50;99.90
71754;DHT22;59593;51.716;7.016;2023-04-25T15:20:51;9.50;99.90
71754;DHT22;59593;51.716;7.016;2023-04-25T15:23:20;9.50;99.90
71754;DHT22;59593;51.716;7.016;2023-04-25T15:25:46;9.50;99.90
71754;DHT22;59593;51.716;7.016;2023-04-25T15:28:12;9.30;99.90
71754;DHT22;59593;51.716;7.016;2023-04-25T15:30:40;9.20;99.90
71754;DHT22;59593;51.716;7.016;2023-04-25T15:33:06;9.30;99.90
71754;DHT22;59593;51.716;7.016;2023-04-25T15:35:31;9.40;99.90
71754;DHT22;59593;51.716;7.016;2023-04-25T15:37:57;9.60;99.90
71754;DHT22;59593;51.716;7.016;2023-04-25T15:40:22;9.60;99.90
71754;DHT22;59593;51.716;7.016;2023-04-25T15:42:49;9.80;99.90
71754;DHT22;59593;51.716;7.016;2023-04-25T15:45:21;10.00;99.90
71754;DHT22;59593;51.716;7.016;2023-04-25T15:47:49;10.10;99.90
71754;DHT22;59593;51.716;7.016;2023-04-25T15:50:15;10.20;99.90
71754;DHT22;59593;51.716;7.016;2023-04-25T15:52:41;10.50;99.90
71754;DHT22;59593;51.716;7.016;2023-04-25T15:55:08;10.70;99.90
71754;DHT22;59593;51.716;7.016;2023-04-25T15:57:34;10.40;99.90
71754;DHT22;59593;51.716;7.016;2023-04-25T16:00:01;10.10;99.90
71754;DHT22;59593;51.716;7.016;2023-04-25T16:02:29;10.30;99.90
71754;DHT22;59593;51.716;7.016;2023-04-25T16:04:55;10.10;99.90
71754;DHT22;59593;51.716;7.016;2023-04-25T16:07:21;9.90;99.90
71754;DHT22;59593;51.716;7.016;2023-04-25T16:09:47;9.90;99.90
71754;DHT22;59593;51.716;7.016;2023-04-25T16:12:14;9.90;99.90
71754;DHT22;59593;51.716;7.016;2023-04-25T16:14:40;10.20;99.90
71754;DHT22;59593;51.716;7.016;2023-04-25T16:17:06;10.30;99.90
71754;DHT22;59593;51.716;7.016;2023-04-25T16:19:31;10.50;99.90
71754;DHT22;59593;51.716;7.016;2023-04-25T16:21:57;10.60;99.90
71754;DHT22;59593;51.716;7.016;2023-04-25T16:24:23;10.40;99.90
71754;DHT22;59593;51.716;7.016;2023-04-25T16:26:48;11.00;99.90
71754;DHT22;59593;51.716;7.016;2023-04-25T16:29:14;11.40;99.90
71754;DHT22;59593;51.716;7.016;2023-04-25T16:31:41;11.70;99.90
71754;DHT22;59593;51.716;7.016;2023-04-25T16:34:07;11.40;99.90
71754;DHT22;59593;51.716;7.016;2023-04-25T16:36:33;10.90;99.90
71754;DHT22;59593;51.716;7.016;2023-04-25T16:38:59;10.70;99.90
71754;DHT22;59593;51.716;7.016;2023-04-25T16:41:27;10.80;99.90
71754;DHT22;59593;51.716;7.016;2023-04-25T16:43:53;10.40;99.90
71754;DHT22;59593;51.716;7.016;2023-04-25T16:46:19;10.20;99.90
71754;DHT22;59593;51.716;7.016;2023-04-25T16:48:46;9.90;99.90
71754;DHT22;59593;51.716;7.016;2023-04-25T16:51:13;9.90;99.90
71754;DHT22;59593;51.716;7.016;2023-04-25T16:53:38;10.30;99.90
71754;DHT22;59593;51.716;7.016;2023-04-25T16:56:04;10.60;99.90
71754;DHT22;59593;51.716;7.016;2023-04-25T16:58:32;10.70;99.90
71754;DHT22;59593;51.716;7.016;2023-04-25T17:00:57;10.70;99.90
71754;DHT22;59593;51.716;7.016;2023-04-25T17:03:23;10.40;99.90
71754;DHT22;59593;51.716;7.016;2023-04-25T17:05:53;10.20;99.90
71754;DHT22;59593;51.716;7.016;2023-04-25T17:08:24;10.20;99.90
71754;DHT22;59593;51.716;7.016;2023-04-25T17:10:50;10.10;99.90
71754;DHT22;59593;51.716;7.016;2023-04-25T17:13:16;10.00;99.90
71754;DHT22;59593;51.716;7.016;2023-04-25T17:15:41;9.60;99.90
71754;DHT22;59593;51.716;7.016;2023-04-25T17:18:07;9.60;99.90
71754;DHT22;59593;51.716;7.016;2023-04-25T17:20:33;9.70;99.90
71754;DHT22;59593;51.716;7.016;2023-04-25T17:22:59;9.90;99.90
71754;DHT22;59593;51.716;7.016;2023-04-25T17:25:25;9.70;99.90
71754;DHT22;59593;51.716;7.016;2023-04-25T17:27:51;9.70;99.90
71754;DHT22;59593;51.716;7.016;2023-04-25T17:30:17;9.80;99.90
71754;DHT22;59593;51.716;7.016;2023-04-25T17:32:43;9.90;99.90
71754;DHT22;59593;51.716;7.016;2023-04-25T17:35:09;9.90;99.90
71754;DHT22;59593;51.716;7.016;2023-04-25T17:37:34;9.90;99.90
71754;DHT22;59593;51.716;7.016;2023-04-25T17:40:00;9.90;99.90
71754;DHT22;59593;51.716;7.016;2023-04-25T17:42:26;9.90;99.90
71754;DHT22;59593;51.716;7.016;2023-04-25T17:44:52;10.00;99.90
71754;DHT22;59593;51.716;7.016;2023-04-25T17:47:20;9.90;99.90
71754;DHT22;59593;51.716;7.016;2023-04-25T17:49:45;9.80;99.90
71754;DHT22;59593;51.716;7.016;2023-04-25T17:52:11;9.70;99.90
71754;DHT22;59593;51.716;7.016;2023-04-25T17:54:36;9.70;99.90
71754;DHT22;59593;51.716;7.016;2023-04-25T17:57:02;9.80;99.90
71754;DHT22;59593;51.716;7.016;2023-04-25T17:59:31;9.90;99.90
71754;DHT22;59593;51.716;7.016;2023-04-25T18:01:57;9.60;99.90
71754;DHT22;59593;51.716;7.016;2023-04-25T18:04:24;9.60;99.90
71754;DHT22;59593;51.716;7.016;2023-04-25T18:06:50;9.40;99.90
71754;DHT22;59593;51.716;7.016;2023-04-25T18:09:15;9.20;99.90
71754;DHT22;59593;51.716;7.016;2023-04-25T18:11:44;9.00;99.90
71754;DHT22;59593;51.716;7.016;2023-04-25T18:14:14;9.00;99.90
71754;DHT22;59593;51.716;7.016;2023-04-25T18:16:41;8.90;99.90
71754;DHT22;59593;51.716;7.016;2023-04-25T18:19:07;8.90;99.90
71754;DHT22;59593;51.716;7.016;2023-04-25T18:21:37;8.80;99.90
71754;DHT22;59593;51.716;7.016;2023-04-25T18:24:04;9.00;99.90
71754;DHT22;59593;51.716;7.016;2023-04-25T18:26:30;8.80;99.90
71754;DHT22;59593;51.716;7.016;2023-04-25T18:28:56;8.70;99.90
71754;DHT22;59593;51.716;7.016;2023-04-25T18:31:21;8.60;99.90
71754;DHT22;59593;51.716;7.016;2023-04-25T18:33:49;8.60;99.90
71754;DHT22;59593;51.716;7.016;2023-04-25T18:36:15;8.50;99.90
71754;DHT22;59593;51.716;7.016;2023-04-25T18:38:40;8.40;99.90
71754;DHT22;59593;51.716;7.016;2023-04-25T18:41:06;8.30;99.90
71754;DHT22;59593;51.716;7.016;2023-04-25T18:43:32;8.20;99.90
71754;DHT22;59593;51.716;7.016;2023-04-25T18:45:58;8.10;99.90
71754;DHT22;59593;51.716;7.016;2023-04-25T18:48:23;8.00;99.90
71754;DHT22;59593;51.716;7.016;2023-04-25T18:50:49;7.90;99.90
71754;DHT22;59593;51.716;7.016;2023-04-25T18:53:15;8.00;99.90
71754;DHT22;59593;51.716;7.016;2023-04-25T18:55:41;7.80;99.90
71754;DHT22;59593;51.716;7.016;2023-04-25T18:58:07;7.90;99.90
71754;DHT22;59593;51.716;7.016;2023-04-25T19:00:33;7.80;99.90
71754;DHT22;59593;51.716;7.016;2023-04-25T19:02:59;7.70;99.90
71754;DHT22;59593;51.716;7.016;2023-04-25T19:05:29;7.60;99.90
71754;DHT22;59593;51.716;7.016;2023-04-25T19:07:55;7.50;99.90
71754;DHT22;59593;51.716;7.016;2023-04-25T19:10:22;7.50;99.90
71754;DHT22;59593;51.716;7.016;2023-04-25T19:12:47;7.30;99.90
71754;DHT22;59593;51.716;7.016;2023-04-25T19:15:13;7.20;99.90
71754;DHT22;59593;51.716;7.016;2023-04-25T19:17:39;7.20;99.90
71754;DHT22;59593;51.716;7.016;2023-04-25T19:20:07;7.20;99.90
71754;DHT22;59593;51.716;7.016;2023-04-25T19:22:33;7.10;99.90
71754;DHT22;59593;51.716;7.016;2023-04-25T19:24:58;7.00;99.90
71754;DHT22;59593;51.716;7.016;2023-04-25T19:27:24;7.00;99.90
71754;DHT22;59593;51.716;7.016;2023-04-25T19:29:50;6.90;99.90
71754;DHT22;59593;51.716;7.016;2023-04-25T19:32:25;6.90;99.90
71754;DHT22;59593;51.716;7.016;2023-04-25T19:34:50;6.90;99.90
71754;DHT22;59593;51.716;7.016;2023-04-25T19:37:17;7.00;99.90
71754;DHT22;59593;51.716;7.016;2023-04-25T19:39:42;6.80;99.90
71754;DHT22;59593;51.716;7.016;2023-04-25T19:42:08;6.80;99.90
71754;DHT22;59593;51.716;7.016;2023-04-25T19:44:33;6.80;99.90
71754;DHT22;59593;51.716;7.016;2023-04-25T19:47:00;6.80;99.90
71754;DHT22;59593;51.716;7.016;2023-04-25T19:49:26;6.70;99.90
71754;DHT22;59593;51.716;7.016;2023-04-25T19:51:52;6.80;99.90
71754;DHT22;59593;51.716;7.016;2023-04-25T19:54:18;6.70;99.90
71754;DHT22;59593;51.716;7.016;2023-04-25T19:56:43;6.80;99.90
71754;DHT22;59593;51.716;7.016;2023-04-25T19:59:10;6.70;99.90
71754;DHT22;59593;51.716;7.016;2023-04-25T20:01:35;6.60;99.90
71754;DHT22;59593;51.716;7.016;2023-04-25T20:04:01;6.50;99.90
71754;DHT22;59593;51.716;7.016;2023-04-25T20:06:27;6.40;99.90
71754;DHT22;59593;51.716;7.016;2023-04-25T20:08:53;6.50;99.90
71754;DHT22;59593;51.716;7.016;2023-04-25T20:11:20;6.50;99.90
71754;DHT22;59593;51.716;7.016;2023-04-25T20:13:46;6.40;99.90
71754;DHT22;59593;51.716;7.016;2023-04-25T20:16:12;6.40;99.90
71754;DHT22;59593;51.716;7.016;2023-04-25T20:18:44;6.40;99.90
71754;DHT22;59593;51.716;7.016;2023-04-25T20:21:10;6.40;99.90
71754;DHT22;59593;51.716;7.016;2023-04-25T20:23:36;6.40;99.90
71754;DHT22;59593;51.716;7.016;2023-04-25T20:26:01;6.30;99.90
71754;DHT22;59593;51.716;7.016;2023-04-25T20:28:27;6.30;99.90
71754;DHT22;59593;51.716;7.016;2023-04-25T20:30:53;6.20;99.90
71754;DHT22;59593;51.716;7.016;2023-04-25T20:33:19;6.20;99.90
71754;DHT22;59593;51.716;7.016;2023-04-25T20:35:46;6.20;99.90
71754;DHT22;59593;51.716;7.016;2023-04-25T20:38:12;6.10;99.90
71754;DHT22;59593;51.716;7.016;2023-04-25T20:40:38;6.10;99.90
71754;DHT22;59593;51.716;7.016;2023-04-25T20:43:04;6.10;99.90
71754;DHT22;59593;51.716;7.016;2023-04-25T20:45:30;6.10;99.90
71754;DHT22;59593;51.716;7.016;2023-04-25T20:47:58;6.00;99.90
71754;DHT22;59593;51.716;7.016;2023-04-25T20:50:24;5.90;99.90
71754;DHT22;59593;51.716;7.016;2023-04-25T20:52:50;5.90;99.90
71754;DHT22;59593;51.716;7.016;2023-04-25T20:55:16;5.90;99.90
71754;DHT22;59593;51.716;7.016;2023-04-25T20:57:42;5.80;99.90
71754;DHT22;59593;51.716;7.016;2023-04-25T21:00:08;5.70;99.90
71754;DHT22;59593;51.716;7.016;2023-04-25T21:02:45;5.70;99.90
71754;DHT22;59593;51.716;7.016;2023-04-25T21:05:11;5.70;99.90
71754;DHT22;59593;51.716;7.016;2023-04-25T21:07:37;5.70;99.90
71754;DHT22;59593;51.716;7.016;2023-04-25T21:10:03;5.70;99.90
71754;DHT22;59593;51.716;7.016;2023-04-25T21:12:29;5.60;99.90
71754;DHT22;59593;51.716;7.016;2023-04-25T21:14:55;5.60;99.90
71754;DHT22;59593;51.716;7.016;2023-04-25T21:17:20;5.60;99.90
71754;DHT22;59593;51.716;7.016;2023-04-25T21:19:46;5.50;99.90
71754;DHT22;59593;51.716;7.016;2023-04-25T21:22:11;5.50;99.90
71754;DHT22;59593;51.716;7.016;2023-04-25T21:24:37;5.50;99.90
71754;DHT22;59593;51.716;7.016;2023-04-25T21:27:03;5.40;99.90
71754;DHT22;59593;51.716;7.016;2023-04-25T21:29:28;5.40;99.90
71754;DHT22;59593;51.716;7.016;2023-04-25T21:31:54;5.30;99.90
71754;DHT22;59593;51.716;7.016;2023-04-25T21:34:21;5.30;99.90
71754;DHT22;59593;51.716;7.016;2023-04-25T21:36:47;5.20;99.90
71754;DHT22;59593;51.716;7.016;2023-04-25T21:39:13;5.20;99.90
71754;DHT22;59593;51.716;7.016;2023-04-25T21:41:39;5.10;99.90
71754;DHT22;59593;51.716;7.016;2023-04-25T21:44:05;5.10;99.90
71754;DHT22;59593;51.716;7.016;2023-04-25T21:46:32;5.00;99.90
71754;DHT22;59593;51.716;7.016;2023-04-25T21:48:58;5.00;99.90
71754;DHT22;59593;51.716;7.016;2023-04-25T21:51:24;5.00;99.90
71754;DHT22;59593;51.716;7.016;2023-04-25T21:53:49;4.90;99.90
71754;DHT22;59593;51.716;7.016;2023-04-25T21:56:15;4.90;99.90
71754;DHT22;59593;51.716;7.016;2023-04-25T21:58:41;4.90;99.90
71754;DHT22;59593;51.716;7.016;2023-04-25T22:01:06;4.90;99.90
71754;DHT22;59593;51.716;7.016;2023-04-25T22:03:32;4.90;99.90